Time;durP1;ratioP1;P1;durP2;ratioP2;P2;SDS_P1;SDS_P2;PMS_P1;PMS_P2;Temp;Humidity;BMP_temperature;BMP_pressure;BME280_temperature;BME280_humidity;BME280_pressure;Samples;Min_cycle;Max_cycle;Signal;HPM_P1;HPM_P2
2022/01/16 00:01:00;;;;;;;17.45;11.15;;;7.80;81.10;;;;;;5037644;28;20811;-72
2022/01/16 00:06:10;;;;;;;18.10;12.32;;;7.70;82.70;;;;;;5036948;28;20052;-72
2022/01/16 00:08:36;;;;;;;20.33;11.25;;;7.60;84.10;;;;;;5043297;28;20037;-72
2022/01/16 00:11:02;;;;;;;20.13;11.45;;;7.70;84.20;;;;;;5034395;28;20041;-72
2022/01/16 00:13:29;;;;;;;19.42;11.75;;;7.50;85.00;;;;;;5038450;28;20182;-73
2022/01/16 00:15:56;;;;;;;22.17;12.13;;;7.50;85.50;;;;;;5028724;28;20041;-74
2022/01/16 00:18:26;;;;;;;21.33;12.57;;;7.30;85.80;;;;;;5037060;28;20049;-72
2022/01/16 00:20:52;;;;;;;17.92;11.70;;;7.40;86.50;;;;;;5025713;28;20037;-72
2022/01/16 00:23:25;;;;;;;18.70;12.13;;;7.40;87.10;;;;;;5021798;28;20526;-72
2022/01/16 00:25:56;;;;;;;28.10;15.27;;;7.40;87.10;;;;;;5023038;28;20039;-72
2022/01/16 00:28:24;;;;;;;22.17;14.20;;;7.30;87.20;;;;;;5012961;28;21153;-72
2022/01/16 00:30:53;;;;;;;27.00;15.35;;;7.20;87.40;;;;;;5012591;28;20051;-72
2022/01/16 00:33:20;;;;;;;21.45;13.10;;;7.00;88.10;;;;;;5023710;28;20050;-72
2022/01/16 00:35:47;;;;;;;22.08;13.57;;;6.90;88.20;;;;;;5014129;28;20044;-70
2022/01/16 00:38:13;;;;;;;19.52;12.10;;;6.90;89.10;;;;;;5041875;28;20045;-71
2022/01/16 00:40:38;;;;;;;20.83;12.93;;;7.10;88.90;;;;;;5027590;28;20091;-71
2022/01/16 00:43:04;;;;;;;17.15;11.82;;;7.10;88.80;;;;;;5041754;28;20055;-72
2022/01/16 00:45:34;;;;;;;20.63;13.20;;;6.90;88.80;;;;;;5038854;28;20123;-72
2022/01/16 00:48:05;;;;;;;21.00;12.35;;;6.70;89.00;;;;;;5018822;28;20046;-72
2022/01/16 00:50:33;;;;;;;21.00;13.00;;;6.80;89.50;;;;;;5041585;28;20485;-71
2022/01/16 00:52:59;;;;;;;21.48;12.85;;;6.90;89.70;;;;;;5037665;28;20046;-72
2022/01/16 00:55:25;;;;;;;20.27;12.25;;;6.70;89.60;;;;;;5038515;28;20034;-71
2022/01/16 00:57:51;;;;;;;22.25;11.68;;;6.70;90.10;;;;;;5043834;28;20130;-72
2022/01/16 01:00:17;;;;;;;20.70;12.48;;;6.50;90.40;;;;;;5041388;28;20033;-72
2022/01/16 01:02:44;;;;;;;21.83;12.88;;;6.60;90.60;;;;;;5042430;28;20385;-71
2022/01/16 01:05:11;;;;;;;19.83;12.23;;;6.60;90.70;;;;;;5038015;28;20076;-72
2022/01/16 01:07:39;;;;;;;22.98;12.35;;;6.60;90.90;;;;;;5036716;28;20032;-72
2022/01/16 01:10:06;;;;;;;22.23;13.23;;;6.50;90.90;;;;;;5037590;28;20072;-72
2022/01/16 01:15:17;;;;;;;19.80;12.95;;;6.30;91.10;;;;;;5036072;28;20099;-73
2022/01/16 01:17:46;;;;;;;21.42;12.52;;;6.50;91.00;;;;;;5036430;28;20041;-72
2022/01/16 01:20:16;;;;;;;21.00;12.57;;;6.60;90.90;;;;;;5037190;28;20042;-72
2022/01/16 01:22:46;;;;;;;21.77;13.05;;;6.50;91.00;;;;;;5043173;28;20451;-71
2022/01/16 01:25:13;;;;;;;26.63;12.65;;;6.30;91.10;;;;;;5028763;28;20040;-73
2022/01/16 01:27:41;;;;;;;19.50;12.63;;;6.40;91.40;;;;;;5039784;28;20099;-72
2022/01/16 01:30:19;;;;;;;23.20;12.85;;;6.40;91.60;;;;;;5038698;28;20095;-73
2022/01/16 01:32:47;;;;;;;20.92;14.02;;;6.50;91.50;;;;;;5053446;28;20041;-71
2022/01/16 01:35:16;;;;;;;21.33;12.88;;;6.40;91.30;;;;;;5028635;28;20041;-71
2022/01/16 01:37:44;;;;;;;19.98;11.98;;;6.40;91.50;;;;;;5018773;28;20408;-71
2022/01/16 01:40:17;;;;;;;19.02;12.52;;;6.50;91.30;;;;;;5035908;28;20071;-72
2022/01/16 01:51:00;;;;;;;;;;;6.40;91.20;;;;;;5041794;28;20068;-71
2022/01/16 01:51:09;;;;;;;25.02;13.23;;;6.30;91.90;;;;;;5034785;28;20052;-71
2022/01/16 01:53:36;;;;;;;20.83;12.55;;;6.20;92.00;;;;;;5040259;28;20376;-71
2022/01/16 01:56:04;;;;;;;20.73;12.05;;;6.20;91.90;;;;;;5042990;28;20118;-72
2022/01/16 01:58:30;;;;;;;21.92;13.05;;;6.20;92.00;;;;;;5039292;28;20048;-71
2022/01/16 02:00:56;;;;;;;20.60;12.73;;;6.20;92.10;;;;;;5040084;28;20060;-71
2022/01/16 02:05:49;;;;;;;22.70;13.30;;;6.10;92.40;;;;;;5045319;28;20041;-72
2022/01/16 02:08:16;;;;;;;23.08;13.10;;;6.00;92.90;;;;;;5039991;28;20048;-72
2022/01/16 02:10:42;;;;;;;21.73;12.82;;;6.00;92.90;;;;;;5042608;28;20041;-71
2022/01/16 02:13:11;;;;;;;21.10;12.50;;;5.90;93.00;;;;;;5033942;28;20489;-71
2022/01/16 02:32:12;;;;;;;21.08;12.23;;;5.90;93.40;;;;;;5035603;28;20049;-71
2022/01/16 02:34:42;;;;;;;17.98;11.90;;;5.80;92.60;;;;;;5055108;28;20483;-71
2022/01/16 02:37:12;;;;;;;18.60;12.05;;;6.10;91.90;;;;;;5033879;28;20121;-71
2022/01/16 02:39:41;;;;;;;19.30;11.90;;;6.40;91.70;;;;;;5038271;28;20086;-71
2022/01/16 02:42:11;;;;;;;18.13;11.38;;;6.40;91.40;;;;;;5019340;28;20098;-72
2022/01/16 02:44:45;;;;;;;18.20;11.40;;;6.30;91.30;;;;;;5035984;28;20056;-71
2022/01/16 02:47:17;;;;;;;20.40;11.75;;;6.30;91.50;;;;;;5042011;28;20036;-72
2022/01/16 02:49:47;;;;;;;17.15;10.73;;;6.30;90.80;;;;;;5049006;28;20037;-72
2022/01/16 02:52:15;;;;;;;23.88;11.95;;;6.30;90.60;;;;;;5040851;28;20563;-71
2022/01/16 02:54:44;;;;;;;19.65;10.85;;;6.40;90.30;;;;;;5047002;28;20167;-71
2022/01/16 02:57:12;;;;;;;15.73;10.50;;;6.50;89.10;;;;;;5046973;28;20489;-71
2022/01/16 02:59:44;;;;;;;19.05;11.63;;;6.40;88.80;;;;;;5039590;28;20059;-72
2022/01/16 03:02:10;;;;;;;17.27;10.27;;;6.40;89.50;;;;;;5037134;28;20041;-71
2022/01/16 03:04:36;;;;;;;18.80;10.38;;;6.30;89.70;;;;;;5042851;28;20094;-71
2022/01/16 03:07:04;;;;;;;17.95;11.15;;;6.30;90.00;;;;;;5039127;28;20069;-71
2022/01/16 03:09:51;;;;;;;16.30;10.45;;;6.20;90.10;;;;;;5035949;28;20064;-71
2022/01/16 03:12:17;;;;;;;21.27;12.18;;;6.30;90.20;;;;;;5040843;28;20120;-72
2022/01/16 03:14:43;;;;;;;19.13;11.98;;;6.30;90.70;;;;;;5047369;28;20076;-71
2022/01/16 03:17:11;;;;;;;18.80;11.45;;;6.30;90.70;;;;;;5037720;28;20480;-71
2022/01/16 03:22:22;;;;;;;16.98;11.18;;;6.30;91.40;;;;;;5044457;28;25277;-71
2022/01/16 03:24:48;;;;;;;18.65;12.45;;;6.20;91.40;;;;;;5038949;28;20465;-71
2022/01/16 03:27:18;;;;;;;18.80;12.70;;;6.00;91.50;;;;;;5045280;28;20048;-73
2022/01/16 03:29:52;;;;;;;19.67;13.30;;;5.90;91.60;;;;;;5035617;28;20047;-73
2022/01/16 03:32:20;;;;;;;19.88;12.27;;;5.90;91.90;;;;;;5040379;28;20075;-73
2022/01/16 03:34:47;;;;;;;18.92;12.38;;;5.80;92.40;;;;;;5040551;28;20033;-71
2022/01/16 03:37:14;;;;;;;23.77;13.32;;;5.90;92.30;;;;;;5046626;28;20128;-72
2022/01/16 03:39:39;;;;;;;20.15;12.43;;;5.80;92.40;;;;;;5042233;28;20029;-73
2022/01/16 03:42:07;;;;;;;22.52;12.77;;;5.70;92.50;;;;;;5040460;28;20115;-72
2022/01/16 03:44:33;;;;;;;20.48;13.75;;;6.00;92.50;;;;;;5029834;28;20038;-73
2022/01/16 03:46:59;;;;;;;22.67;13.43;;;6.10;92.60;;;;;;5036582;28;20443;-73
2022/01/16 03:49:28;;;;;;;20.77;13.85;;;6.00;93.00;;;;;;5046205;28;20037;-71
2022/01/16 03:51:55;;;;;;;23.98;13.52;;;5.80;93.10;;;;;;5037826;28;20057;-71
2022/01/16 03:54:27;;;;;;;27.52;13.55;;;5.60;93.40;;;;;;5041183;28;20037;-73
2022/01/16 03:56:54;;;;;;;22.23;13.05;;;5.60;93.90;;;;;;5041511;28;20152;-72
2022/01/16 03:59:21;;;;;;;18.65;12.45;;;5.60;93.90;;;;;;5037254;28;20032;-71
2022/01/16 04:01:47;;;;;;;22.63;14.13;;;5.50;94.10;;;;;;5042574;28;20068;-71
2022/01/16 04:04:14;;;;;;;17.27;11.93;;;5.40;94.10;;;;;;5033023;28;20439;-71
2022/01/16 04:06:39;;;;;;;22.65;14.30;;;5.40;94.60;;;;;;5024865;28;20030;-72
2022/01/16 04:09:06;;;;;;;20.52;13.05;;;5.40;94.90;;;;;;5039326;28;20097;-71
2022/01/16 04:11:33;;;;;;;23.85;13.05;;;5.30;94.70;;;;;;5023080;28;20026;-71
2022/01/16 04:14:08;;;;;;;20.92;12.45;;;5.30;94.80;;;;;;5039030;28;20489;-72
2022/01/16 04:16:35;;;;;;;22.77;12.82;;;5.20;94.80;;;;;;5020603;28;20036;-71
2022/01/16 04:19:04;;;;;;;19.33;12.45;;;5.20;94.90;;;;;;5041564;28;20060;-71
2022/01/16 04:21:30;;;;;;;20.90;13.50;;;5.30;95.00;;;;;;5041899;28;20026;-72
2022/01/16 04:23:57;;;;;;;20.52;12.38;;;5.30;94.90;;;;;;5040753;28;20123;-72
2022/01/16 04:26:25;;;;;;;19.48;11.68;;;5.30;94.90;;;;;;5038150;28;20034;-72
2022/01/16 04:28:55;;;;;;;21.83;11.90;;;5.20;94.70;;;;;;5046844;28;20044;-72
2022/01/16 04:31:22;;;;;;;18.42;11.30;;;5.30;94.50;;;;;;5040935;28;20033;-73
2022/01/16 04:33:48;;;;;;;17.92;11.20;;;5.30;94.20;;;;;;5040076;28;20124;-72
2022/01/16 04:36:15;;;;;;;16.92;11.73;;;5.30;94.20;;;;;;5041767;28;20120;-72
2022/01/16 04:38:46;;;;;;;19.27;12.95;;;5.50;94.40;;;;;;5039670;28;20041;-72
2022/01/16 04:43:58;;;;;;;17.58;11.23;;;5.40;94.30;;;;;;5025673;28;20408;-71
2022/01/16 04:46:26;;;;;;;19.27;11.55;;;5.40;94.30;;;;;;5024750;28;20030;-71
2022/01/16 04:48:53;;;;;;;17.60;11.13;;;5.40;94.40;;;;;;5042473;28;20044;-72
2022/01/16 04:51:22;;;;;;;20.00;11.82;;;5.50;94.00;;;;;;5038671;28;20377;-71
2022/01/16 04:53:50;;;;;;;19.20;11.63;;;5.70;93.60;;;;;;5023634;28;20060;-72
2022/01/16 04:56:16;;;;;;;17.73;11.50;;;5.90;92.30;;;;;;5043359;28;20029;-72
2022/01/16 04:58:42;;;;;;;20.48;11.82;;;6.00;92.70;;;;;;5044741;28;20389;-72
2022/01/16 05:01:09;;;;;;;21.67;12.80;;;6.00;93.90;;;;;;5045432;28;20036;-72
2022/01/16 05:03:36;;;;;;;21.55;12.32;;;5.90;94.20;;;;;;5039425;28;20048;-72
2022/01/16 05:06:04;;;;;;;23.63;12.80;;;5.90;93.70;;;;;;5027981;28;20099;-71
2022/01/16 05:08:31;;;;;;;24.80;14.07;;;5.90;93.20;;;;;;5036565;28;20052;-72
2022/01/16 05:10:57;;;;;;;24.50;13.10;;;5.60;93.80;;;;;;5037421;28;20041;-72
2022/01/16 05:16:35;;;;;;;19.50;12.85;;;5.80;94.10;;;;;;5033299;28;20048;-71
2022/01/16 05:16:36;;;;;;;19.42;13.23;;;6.00;94.30;;;;;;5040507;28;20046;-72
2022/01/16 05:19:10;;;;;;;21.55;13.32;;;5.90;94.30;;;;;;5038369;28;20476;-72
2022/01/16 05:21:38;;;;;;;21.77;13.63;;;6.00;94.40;;;;;;5027801;28;20033;-72
2022/01/16 05:24:11;;;;;;;20.13;13.55;;;5.90;94.40;;;;;;5034987;28;20077;-73
2022/01/16 05:26:39;;;;;;;23.03;13.37;;;5.90;94.20;;;;;;5023307;28;20043;-71
2022/01/16 05:29:05;;;;;;;20.35;13.18;;;6.00;94.00;;;;;;5027829;28;20276;-72
2022/01/16 05:31:32;;;;;;;20.73;13.60;;;5.90;94.00;;;;;;5046244;28;20037;-72
2022/01/16 05:33:58;;;;;;;22.45;13.10;;;5.80;94.00;;;;;;5042187;28;20496;-72
2022/01/16 05:36:24;;;;;;;20.23;13.82;;;5.90;93.80;;;;;;5041765;28;20045;-73
2022/01/16 05:38:50;;;;;;;24.02;14.32;;;5.90;93.60;;;;;;5044987;28;20052;-71
2022/01/16 05:41:18;;;;;;;21.60;12.30;;;5.80;93.80;;;;;;5036852;28;20037;-73
2022/01/16 05:43:56;;;;;;;20.90;13.80;;;5.80;93.20;;;;;;5037643;28;20041;-72
2022/01/16 05:46:22;;;;;;;17.67;12.40;;;5.70;93.20;;;;;;5042465;28;20046;-71
2022/01/16 05:48:50;;;;;;;21.25;13.52;;;5.80;92.80;;;;;;5021106;28;20138;-72
2022/01/16 05:51:17;;;;;;;17.33;11.77;;;5.70;92.90;;;;;;5044672;28;20094;-71
2022/01/16 05:53:45;;;;;;;25.83;15.07;;;5.70;92.90;;;;;;5036511;28;20051;-71
2022/01/16 05:56:15;;;;;;;23.92;14.00;;;5.70;92.80;;;;;;5036501;28;20029;-71
2022/01/16 05:58:41;;;;;;;20.42;13.30;;;5.70;92.90;;;;;;5046110;28;20089;-70
2022/01/16 06:01:07;;;;;;;26.13;14.25;;;5.70;92.90;;;;;;5036299;28;20040;-72
2022/01/16 06:03:34;;;;;;;21.67;13.73;;;5.60;94.20;;;;;;5039447;28;20044;-73
2022/01/16 06:06:00;;;;;;;20.42;14.25;;;5.60;94.30;;;;;;5041969;28;20044;-72
2022/01/16 06:08:27;;;;;;;20.52;13.55;;;5.60;94.70;;;;;;5037873;28;20044;-70
2022/01/16 06:10:53;;;;;;;21.42;13.27;;;5.50;94.90;;;;;;5043552;28;20115;-72
2022/01/16 06:13:19;;;;;;;22.58;14.32;;;5.30;95.00;;;;;;5037021;28;20076;-70
2022/01/16 06:15:46;;;;;;;21.77;13.52;;;5.30;95.30;;;;;;5042502;28;20488;-74
2022/01/16 06:18:13;;;;;;;20.75;13.48;;;5.30;95.40;;;;;;5036980;28;20068;-72
2022/01/16 06:20:41;;;;;;;23.75;13.95;;;5.40;95.30;;;;;;5031152;28;20041;-72
2022/01/16 06:23:07;;;;;;;21.23;14.10;;;5.50;95.60;;;;;;5034167;28;20428;-71
2022/01/16 06:25:34;;;;;;;20.10;13.52;;;5.70;95.60;;;;;;5048779;28;20038;-71
2022/01/16 06:28:00;;;;;;;21.15;14.55;;;5.70;95.90;;;;;;5042729;28;20124;-71
2022/01/16 06:30:26;;;;;;;19.27;13.25;;;5.70;95.80;;;;;;5021155;28;20045;-72
2022/01/16 06:32:53;;;;;;;23.30;14.93;;;5.60;95.20;;;;;;5051990;28;20030;-70
2022/01/16 06:35:19;;;;;;;20.48;13.77;;;5.50;95.40;;;;;;5038606;28;20091;-72
2022/01/16 06:37:47;;;;;;;19.65;14.10;;;5.40;95.80;;;;;;5060496;28;20052;-71
2022/01/16 06:40:15;;;;;;;24.05;14.55;;;5.40;96.00;;;;;;5044518;28;20033;-71
2022/01/16 06:42:42;;;;;;;21.92;14.45;;;5.30;95.90;;;;;;5047116;28;20043;-71
2022/01/16 06:45:10;;;;;;;23.35;13.65;;;5.20;96.20;;;;;;5031204;28;20363;-71
2022/01/16 06:47:36;;;;;;;22.80;14.00;;;5.20;96.10;;;;;;5047751;28;20041;-71
2022/01/16 06:50:05;;;;;;;26.38;13.68;;;5.20;96.00;;;;;;5038909;28;20072;-72
2022/01/16 06:52:31;;;;;;;21.42;13.52;;;5.40;96.10;;;;;;5045784;28;20045;-72
2022/01/16 06:54:57;;;;;;;21.42;13.05;;;5.20;96.30;;;;;;5041984;28;20038;-71
2022/01/16 06:57:23;;;;;;;19.95;13.15;;;5.30;95.50;;;;;;5028547;28;20223;-71
2022/01/16 06:59:50;;;;;;;18.10;11.55;;;5.50;94.90;;;;;;5040668;28;20037;-71
2022/01/16 07:02:19;;;;;;;26.45;11.75;;;5.60;93.70;;;;;;5041984;28;20090;-72
2022/01/16 07:04:46;;;;;;;21.77;11.95;;;5.70;93.00;;;;;;5044246;28;20392;-72
2022/01/16 07:07:11;;;;;;;15.88;9.88;;;5.80;92.80;;;;;;5047978;28;21914;-71
2022/01/16 07:09:39;;;;;;;15.65;9.27;;;6.00;90.80;;;;;;5033367;28;20029;-71
2022/01/16 07:12:06;;;;;;;17.23;10.32;;;6.30;90.40;;;;;;5046871;28;20044;-71
2022/01/16 07:14:33;;;;;;;19.70;12.30;;;6.40;90.40;;;;;;5044583;28;20025;-71
2022/01/16 07:16:59;;;;;;;21.52;13.57;;;6.20;92.30;;;;;;5043903;28;20036;-71
2022/01/16 07:19:26;;;;;;;25.75;17.15;;;6.00;93.10;;;;;;5045883;28;20065;-71
2022/01/16 07:21:53;;;;;;;21.70;13.32;;;5.90;93.30;;;;;;5049493;28;20056;-71
2022/01/16 07:24:20;;;;;;;24.15;13.38;;;5.90;93.20;;;;;;5042825;28;20040;-71
2022/01/16 07:26:47;;;;;;;22.40;13.32;;;5.90;94.50;;;;;;5045622;28;20033;-72
2022/01/16 07:29:13;;;;;;;23.25;13.65;;;5.90;94.30;;;;;;5046362;28;20040;-71
2022/01/16 07:31:39;;;;;;;22.92;13.25;;;5.80;94.90;;;;;;5039964;28;20098;-72
2022/01/16 07:34:07;;;;;;;18.67;12.82;;;5.80;94.70;;;;;;5031851;28;20151;-71
2022/01/16 07:36:33;;;;;;;21.10;13.82;;;5.80;95.10;;;;;;5038586;28;20086;-71
2022/01/16 07:39:00;;;;;;;19.27;13.00;;;5.80;95.30;;;;;;5035815;28;20049;-71
2022/01/16 07:41:26;;;;;;;22.58;13.77;;;5.80;95.50;;;;;;5039124;28;20034;-71
2022/01/16 07:43:52;;;;;;;21.20;13.40;;;5.90;95.40;;;;;;5045083;28;20809;-71
2022/01/16 07:46:18;;;;;;;21.13;14.18;;;5.80;95.60;;;;;;5041736;28;20117;-71
2022/01/16 07:48:44;;;;;;;21.52;13.43;;;5.90;95.50;;;;;;5042812;28;20198;-70
2022/01/16 07:51:11;;;;;;;21.40;13.75;;;5.90;95.20;;;;;;5044813;28;20063;-71
2022/01/16 07:53:37;;;;;;;22.33;12.95;;;6.00;94.90;;;;;;5040034;28;20037;-71
2022/01/16 07:56:04;;;;;;;16.92;10.55;;;6.20;94.50;;;;;;5041162;28;20043;-72
2022/01/16 07:58:30;;;;;;;19.08;9.57;;;6.40;92.40;;;;;;5040883;28;20590;-74
2022/01/16 08:00:56;;;;;;;14.07;8.35;;;6.80;89.80;;;;;;5041530;28;20041;-72
2022/01/16 08:03:23;;;;;;;13.60;8.68;;;7.00;87.50;;;;;;5034108;28;21141;-71
2022/01/16 08:05:49;;;;;;;15.73;10.13;;;7.20;86.90;;;;;;5042806;28;20180;-75
2022/01/16 08:08:15;;;;;;;24.15;13.05;;;7.10;89.80;;;;;;5045753;28;20057;-72
2022/01/16 08:10:41;;;;;;;23.30;12.68;;;7.00;91.40;;;;;;5043273;28;20052;-74
2022/01/16 08:13:07;;;;;;;19.13;12.20;;;6.80;92.20;;;;;;5015686;28;20037;-71
2022/01/16 08:15:35;;;;;;;21.25;12.32;;;6.80;91.80;;;;;;5047097;28;20063;-71
2022/01/16 08:18:01;;;;;;;17.92;12.60;;;6.80;92.20;;;;;;5032313;28;20045;-72
2022/01/16 08:20:27;;;;;;;19.45;12.32;;;6.90;91.90;;;;;;5043435;28;20033;-72
2022/01/16 08:22:54;;;;;;;23.27;13.38;;;6.90;91.40;;;;;;5044622;28;20033;-72
2022/01/16 08:25:20;;;;;;;23.60;14.50;;;7.00;92.60;;;;;;5037178;28;20973;-72
2022/01/16 08:27:46;;;;;;;21.15;15.88;;;7.00;92.70;;;;;;5046784;28;20099;-71
2022/01/16 08:30:12;;;;;;;20.98;15.93;;;8.90;92.00;;;;;;5043821;28;20041;-72
2022/01/16 08:32:42;;;;;;;20.15;15.05;;;10.50;90.40;;;;;;5037883;28;20044;-72
2022/01/16 08:35:08;;;;;;;19.55;14.27;;;11.60;88.30;;;;;;5038575;28;20033;-72
2022/01/16 08:37:36;;;;;;;19.00;14.57;;;12.20;85.20;;;;;;5038952;28;20392;-74
2022/01/16 08:40:04;;;;;;;19.15;14.70;;;12.70;85.30;;;;;;5030021;28;20041;-74
2022/01/16 08:42:30;;;;;;;19.45;14.70;;;13.30;83.50;;;;;;5034840;28;20061;-71
2022/01/16 08:44:57;;;;;;;19.00;13.18;;;14.20;82.90;;;;;;5039568;28;20442;-73
2022/01/16 08:47:26;;;;;;;21.25;14.43;;;15.00;81.10;;;;;;5039890;28;20072;-72
2022/01/16 08:49:52;;;;;;;27.83;16.35;;;15.40;79.10;;;;;;5037512;28;20742;-71
2022/01/16 08:52:21;;;;;;;18.27;12.30;;;15.80;79.00;;;;;;5038852;28;20044;-72
2022/01/16 08:54:47;;;;;;;18.25;11.43;;;16.20;75.50;;;;;;5038272;28;20044;-72
2022/01/16 08:57:13;;;;;;;12.10;9.40;;;16.10;73.20;;;;;;5038258;28;20044;-72
2022/01/16 08:59:39;;;;;;;13.43;10.10;;;15.90;71.40;;;;;;5044075;28;20037;-72
2022/01/16 09:02:05;;;;;;;13.95;9.63;;;16.30;71.90;;;;;;5036684;28;20055;-72
2022/01/16 09:04:31;;;;;;;12.32;9.38;;;16.90;71.60;;;;;;5041275;28;20028;-72
2022/01/16 09:06:58;;;;;;;14.23;10.45;;;16.60;70.00;;;;;;5054637;28;20035;-72
2022/01/16 09:09:24;;;;;;;15.48;11.23;;;15.70;71.00;;;;;;5032053;28;20050;-72
2022/01/16 09:11:51;;;;;;;25.77;15.95;;;15.00;71.70;;;;;;5037819;28;20028;-74
2022/01/16 09:14:17;;;;;;;22.95;14.90;;;14.30;73.60;;;;;;5038527;28;20136;-73
2022/01/16 09:16:43;;;;;;;21.45;16.30;;;13.50;75.90;;;;;;5043646;28;20120;-72
2022/01/16 09:19:10;;;;;;;18.80;13.57;;;13.30;76.90;;;;;;5038735;28;20128;-72
2022/01/16 09:21:36;;;;;;;18.98;13.45;;;12.90;76.80;;;;;;5037757;28;20094;-73
2022/01/16 09:24:03;;;;;;;15.38;11.07;;;12.80;76.20;;;;;;5044472;28;20103;-72
2022/01/16 09:26:29;;;;;;;12.95;9.90;;;12.60;74.80;;;;;;5036647;28;20029;-72
2022/01/16 09:28:55;;;;;;;17.92;9.65;;;12.50;74.90;;;;;;5041454;28;20044;-72
2022/01/16 09:31:21;;;;;;;13.15;9.02;;;12.40;74.20;;;;;;5037230;28;20068;-72
2022/01/16 09:33:47;;;;;;;15.05;11.38;;;12.30;73.50;;;;;;5022246;28;20140;-71
2022/01/16 09:36:13;;;;;;;14.60;10.23;;;12.30;73.70;;;;;;5041096;28;20128;-72
2022/01/16 09:38:40;;;;;;;14.07;9.88;;;12.30;73.40;;;;;;5036287;28;20043;-72
2022/01/16 09:41:06;;;;;;;13.50;9.82;;;12.60;72.60;;;;;;5037124;28;20437;-71
2022/01/16 09:43:35;;;;;;;11.82;8.32;;;12.90;72.30;;;;;;5036326;28;20045;-72
2022/01/16 09:46:02;;;;;;;12.38;8.90;;;13.40;71.70;;;;;;5037256;28;20044;-72
2022/01/16 09:48:28;;;;;;;11.35;8.40;;;13.70;70.50;;;;;;5038376;28;20044;-74
2022/01/16 09:50:55;;;;;;;11.55;8.95;;;14.10;70.10;;;;;;5035860;28;20369;-72
2022/01/16 09:53:22;;;;;;;11.15;7.93;;;14.40;69.70;;;;;;5024351;28;20042;-74
2022/01/16 09:55:48;;;;;;;10.60;7.85;;;14.60;69.10;;;;;;5044862;28;20037;-72
2022/01/16 09:58:19;;;;;;;13.90;8.55;;;14.70;69.10;;;;;;5024300;28;20443;-72
2022/01/16 10:00:45;;;;;;;12.73;8.60;;;14.90;69.00;;;;;;5044784;28;20065;-73
2022/01/16 10:03:39;;;;;;;11.10;8.20;;;15.10;68.80;;;;;;5028241;28;20503;-72
2022/01/16 10:06:20;;;;;;;12.95;7.90;;;15.30;68.40;;;;;;5029351;28;20041;-73
2022/01/16 10:08:51;;;;;;;12.60;8.38;;;15.30;67.80;;;;;;5037274;28;20562;-73
2022/01/16 10:11:40;;;;;;;11.40;8.48;;;15.50;67.80;;;;;;5041646;28;20041;-72
2022/01/16 10:14:23;;;;;;;10.63;8.30;;;15.60;68.60;;;;;;5053950;28;20053;-73
2022/01/16 10:16:49;;;;;;;11.75;8.80;;;15.80;67.10;;;;;;5040464;28;20057;-73
2022/01/16 10:19:35;;;;;;;12.93;7.63;;;15.90;67.30;;;;;;5033810;28;20045;-73
2022/01/16 10:22:08;;;;;;;9.68;7.53;;;16.00;67.10;;;;;;5032721;28;20037;-73
2022/01/16 10:24:39;;;;;;;11.85;7.57;;;16.00;66.70;;;;;;5026955;28;20046;-72
2022/01/16 10:27:08;;;;;;;10.48;7.38;;;16.10;66.70;;;;;;5026956;28;20121;-72
2022/01/16 10:29:42;;;;;;;8.30;6.95;;;16.10;66.00;;;;;;5021497;28;20025;-72
2022/01/16 10:32:14;;;;;;;9.10;6.57;;;15.90;65.90;;;;;;5031395;28;20029;-74
2022/01/16 10:34:41;;;;;;;10.95;8.07;;;16.20;67.10;;;;;;5025228;28;20033;-72
2022/01/16 10:37:31;;;;;;;10.18;8.05;;;16.30;66.80;;;;;;5039352;28;20029;-72
2022/01/16 10:39:58;;;;;;;8.93;7.32;;;16.50;66.30;;;;;;5024272;28;20120;-73
2022/01/16 10:42:27;;;;;;;13.30;8.15;;;16.60;65.70;;;;;;5024926;28;20037;-73
2022/01/16 10:45:02;;;;;;;10.32;7.10;;;16.80;66.10;;;;;;5025445;28;20033;-73
2022/01/16 10:47:30;;;;;;;10.52;6.88;;;16.90;64.60;;;;;;5031225;28;20033;-73
2022/01/16 10:50:02;;;;;;;9.45;6.93;;;17.00;64.10;;;;;;5028488;28;20029;-73
2022/01/16 10:52:28;;;;;;;8.88;7.05;;;17.10;64.80;;;;;;5041508;28;20025;-73
2022/01/16 10:55:03;;;;;;;10.98;6.90;;;17.40;63.90;;;;;;5035376;28;20139;-75
2022/01/16 10:57:29;;;;;;;9.98;6.57;;;17.60;63.90;;;;;;5044921;28;20038;-74
2022/01/16 11:00:12;;;;;;;13.18;7.28;;;17.60;63.70;;;;;;5035415;28;20042;-74
2022/01/16 11:02:41;;;;;;;11.25;6.72;;;17.70;63.10;;;;;;5039793;28;20083;-75
2022/01/16 11:05:10;;;;;;;11.07;7.07;;;17.80;62.80;;;;;;5040440;28;20055;-75
2022/01/16 11:07:37;;;;;;;11.45;7.45;;;18.00;62.80;;;;;;5039881;28;20042;-74
2022/01/16 11:10:26;;;;;;;9.68;7.60;;;18.20;62.70;;;;;;5046933;28;20508;-73
2022/01/16 11:12:54;;;;;;;8.85;6.60;;;18.40;62.50;;;;;;5048463;28;20105;-74
2022/01/16 11:15:21;;;;;;;8.43;6.82;;;18.60;62.50;;;;;;5046083;28;20041;-72
2022/01/16 11:17:47;;;;;;;8.68;6.32;;;18.80;61.80;;;;;;5036747;28;20044;-75
2022/01/16 11:20:18;;;;;;;10.68;5.55;;;19.00;61.00;;;;;;5042747;28;20095;-74
2022/01/16 11:22:59;;;;;;;11.15;5.60;;;19.30;60.30;;;;;;5031592;28;20041;-74
2022/01/16 11:25:33;;;;;;;8.18;5.40;;;19.40;60.40;;;;;;5044847;28;20038;-74
2022/01/16 11:28:11;;;;;;;6.93;5.55;;;19.40;59.90;;;;;;5042237;28;20066;-73
2022/01/16 11:30:47;;;;;;;7.90;5.70;;;19.80;59.40;;;;;;5026038;28;20071;-74
2022/01/16 11:33:14;;;;;;;7.32;5.05;;;19.90;59.70;;;;;;5037932;28;20506;-74
2022/01/16 11:35:49;;;;;;;8.00;6.20;;;20.20;58.70;;;;;;5059988;28;20047;-73
2022/01/16 11:38:21;;;;;;;8.80;6.03;;;20.40;58.20;;;;;;5060421;28;20052;-76
2022/01/16 11:40:49;;;;;;;7.20;6.03;;;20.50;58.60;;;;;;5037885;28;20503;-79
2022/01/16 11:43:37;;;;;;;7.80;5.90;;;20.60;58.70;;;;;;5039136;28;20045;-76
2022/01/16 11:46:18;;;;;;;9.02;5.43;;;20.50;59.00;;;;;;5043129;28;20041;-75
2022/01/16 11:48:47;;;;;;;7.40;5.65;;;20.90;58.60;;;;;;5042370;28;20030;-76
2022/01/16 11:51:35;;;;;;;8.18;6.18;;;21.30;57.60;;;;;;5038248;28;20040;-76
2022/01/16 11:54:08;;;;;;;7.00;5.90;;;21.60;57.30;;;;;;5044731;28;20055;-76
2022/01/16 11:56:40;;;;;;;7.68;5.68;;;21.60;57.30;;;;;;5040600;28;20037;-74
2022/01/16 11:59:22;;;;;;;7.10;5.53;;;22.00;57.50;;;;;;5038639;28;20056;-77
2022/01/16 12:01:55;;;;;;;7.43;5.97;;;22.00;57.60;;;;;;5040386;28;20037;-77
2022/01/16 12:04:30;;;;;;;11.75;6.50;;;22.30;57.30;;;;;;5047337;28;20361;-74
2022/01/16 12:07:12;;;;;;;7.57;5.97;;;22.70;57.50;;;;;;5059680;28;20041;-76
2022/01/16 12:12:14;;;;;;;8.45;6.25;;;23.20;56.70;;;;;;5040711;28;20477;-76
2022/01/16 12:14:49;;;;;;;11.90;6.53;;;23.50;56.20;;;;;;5038798;28;20041;-75
2022/01/16 12:17:42;;;;;;;8.82;6.68;;;23.20;56.60;;;;;;5038470;28;20063;-74
2022/01/16 12:20:17;;;;;;;14.60;6.72;;;23.00;56.50;;;;;;5036276;28;20473;-75
2022/01/16 12:23:03;;;;;;;9.23;7.20;;;22.90;56.60;;;;;;5037583;28;20090;-75
2022/01/16 12:25:36;;;;;;;8.05;6.40;;;23.60;56.60;;;;;;5039519;28;20036;-76
2022/01/16 12:28:06;;;;;;;8.90;6.70;;;23.50;55.70;;;;;;5036962;28;20092;-77
2022/01/16 12:30:52;;;;;;;9.13;7.30;;;23.50;56.00;;;;;;5038336;28;20044;-75
2022/01/16 12:33:24;;;;;;;9.40;7.75;;;24.10;56.20;;;;;;5038807;28;20075;-75
2022/01/16 12:35:51;;;;;;;9.25;7.28;;;23.50;55.00;;;;;;5044828;28;20036;-76
2022/01/16 12:38:18;;;;;;;9.80;6.85;;;23.40;55.50;;;;;;5018979;28;20526;-78
2022/01/16 12:40:52;;;;;;;9.25;6.57;;;23.50;55.00;;;;;;5047376;28;20030;-76
2022/01/16 12:43:29;;;;;;;7.80;5.90;;;24.30;54.70;;;;;;5028712;28;20087;-77
2022/01/16 12:45:55;;;;;;;6.95;5.78;;;24.80;53.60;;;;;;5058602;28;20467;-76
2022/01/16 12:48:22;;;;;;;7.32;5.18;;;24.30;53.40;;;;;;5042073;28;20144;-74
2022/01/16 12:50:49;;;;;;;6.25;5.30;;;24.30;53.60;;;;;;5040993;28;20033;-75
2022/01/16 12:53:46;;;;;;;6.93;5.60;;;23.90;53.10;;;;;;5044492;28;20095;-75
2022/01/16 12:56:19;;;;;;;9.75;5.82;;;23.40;53.20;;;;;;5030773;28;20113;-75
2022/01/16 12:58:48;;;;;;;10.55;5.93;;;23.50;53.40;;;;;;5043270;28;20409;-77
2022/01/16 13:01:15;;;;;;;9.15;6.47;;;23.90;53.50;;;;;;5049665;28;20061;-75
2022/01/16 13:03:43;;;;;;;8.75;6.15;;;24.50;52.60;;;;;;5044356;28;20043;-75
2022/01/16 13:06:30;;;;;;;8.10;5.88;;;24.60;52.30;;;;;;5038443;28;20045;-76
2022/01/16 13:09:06;;;;;;;8.50;5.57;;;25.30;51.60;;;;;;5045520;28;20045;-76
2022/01/16 13:11:39;;;;;;;8.38;5.22;;;25.20;50.80;;;;;;5059977;28;20071;-75
2022/01/16 13:14:07;;;;;;;9.25;4.80;;;25.30;51.60;;;;;;5043510;28;20044;-77
2022/01/16 13:16:43;;;;;;;9.45;8.00;;;25.30;50.10;;;;;;5038888;28;20037;-73
2022/01/16 13:19:14;;;;;;;11.80;9.65;;;24.40;52.00;;;;;;5038940;28;20096;-76
2022/01/16 13:22:07;;;;;;;10.68;9.30;;;23.70;53.20;;;;;;5043716;28;20036;-75
2022/01/16 13:24:39;;;;;;;12.18;9.82;;;23.80;53.40;;;;;;5039943;28;20071;-76
2022/01/16 13:27:09;;;;;;;13.70;10.43;;;24.20;52.70;;;;;;5045609;28;20140;-76